Terminal Aerodrome Forecast
Issued by NWS

Home | Current Version | Previous Version | Graphics & Text | Print | Product List | Glossary On
Versions: 1 2 3 4 5 6 7 8 9 10 11 12 13 14 15 16 17 18 19 20 21 22 23 24 25 26 27
000
FTUS43 KICT 241127
TAFHUT
TAF
KHUT 241127Z 2412/2512 13005KT P6SM FEW003 SCT008 BKN015
      TEMPO 2412/2415 3SM BR SCT003 BKN008
     FM241700 17010KT P6SM VCSH SCT015 BKN025=

USA.gov is the U.S. government's official web portal to all federal, state and local government web resources and services.